createdAt,value
2023-05-15T00:11:56.567Z,15.1
2023-05-15T00:27:05.532Z,15
2023-05-15T00:42:15.107Z,14.9
2023-05-15T00:57:24.899Z,14.8
2023-05-15T01:12:34.541Z,14.6
2023-05-15T01:27:45.288Z,14.4
2023-05-15T01:42:55.125Z,14.2
2023-05-15T01:58:04.707Z,13.9
2023-05-15T02:13:14.590Z,13.9
2023-05-15T02:28:23.793Z,13.7
2023-05-15T02:43:35.321Z,13.7
2023-05-15T02:58:45.615Z,13.3
2023-05-15T03:13:55.073Z,13.2
2023-05-15T03:29:05.056Z,13.3
2023-05-15T03:44:14.556Z,12.9
2023-05-15T03:59:24.089Z,12.7
2023-05-15T04:14:35.314Z,12.8
2023-05-15T04:29:45.007Z,12.9
2023-05-15T04:44:55.007Z,12.9
2023-05-15T05:00:04.397Z,13.1
2023-05-15T05:15:14.914Z,13.1
2023-05-15T05:30:24.970Z,13.2
2023-05-15T05:45:34.894Z,13.4
2023-05-15T06:01:03.273Z,13.8
2023-05-15T06:16:13.400Z,13.9
2023-05-15T06:31:24.119Z,14.1
2023-05-15T06:46:35.667Z,14.3
2023-05-15T07:01:46.158Z,14.1
2023-05-15T07:16:56.900Z,14.4
2023-05-15T07:32:06.860Z,14.6
2023-05-15T07:47:17.159Z,15
2023-05-15T08:02:27.862Z,15.2
2023-05-15T08:17:38.388Z,15.5
2023-05-15T08:32:49.456Z,15.9
2023-05-15T08:47:59.997Z,16.3
2023-05-15T09:03:11.363Z,16.6
2023-05-15T09:18:21.865Z,17
2023-05-15T09:33:35.503Z,17.5
2023-05-15T09:48:46.280Z,17.8
2023-05-15T10:03:56.714Z,18.2
2023-05-15T10:19:07.908Z,18.7
2023-05-15T10:34:19.985Z,19
2023-05-15T10:49:31.123Z,19.3
2023-05-15T11:04:42.612Z,19.7
2023-05-15T11:19:53.331Z,20.1
2023-05-15T11:35:03.194Z,20.1
2023-05-15T11:50:12.950Z,20.3
2023-05-15T12:05:24.287Z,20.8
2023-05-15T12:20:35.504Z,22.6
2023-05-15T12:35:44.818Z,21.5
2023-05-15T12:50:54.338Z,21
2023-05-15T13:06:04.406Z,20.9
2023-05-15T13:21:14.538Z,20.9
2023-05-15T13:36:24.615Z,20.5
2023-05-15T13:51:34.514Z,20.5
2023-05-15T14:06:43.975Z,20
2023-05-15T14:21:52.681Z,18.7
2023-05-15T14:37:01.975Z,18.7
2023-05-15T14:52:11.694Z,19
2023-05-15T15:07:21.750Z,19
2023-05-15T15:23:41.904Z,20.6
2023-05-15T15:38:53.618Z,20.7
2023-05-15T15:54:02.693Z,19.6
2023-05-15T16:09:11.399Z,18.9
2023-05-15T16:24:20.952Z,18.6
2023-05-15T16:39:30.038Z,18.4
2023-05-15T16:54:39.751Z,18.3
2023-05-15T17:09:49.540Z,18.1
2023-05-15T17:24:59.110Z,18.1
2023-05-15T17:40:08.711Z,18.1
2023-05-15T17:55:18.146Z,18.1
2023-05-15T18:10:27.718Z,17.9
2023-05-15T18:25:37.326Z,17.6
2023-05-15T18:40:46.788Z,17.2
2023-05-15T18:55:55.805Z,16.8
2023-05-15T19:11:05.365Z,16.4
2023-05-15T19:26:14.594Z,16
2023-05-15T19:41:23.970Z,15.7
2023-05-15T19:56:33.471Z,15.3
2023-05-15T20:11:42.764Z,14.9
2023-05-15T20:26:52.001Z,14.7
2023-05-15T20:42:01.848Z,14.4
2023-05-15T20:58:13.121Z,14.2
2023-05-15T21:13:22.351Z,13.4
2023-05-15T21:28:31.735Z,13
2023-05-15T21:43:41.232Z,12.9
2023-05-15T21:58:50.700Z,12.8
2023-05-15T22:14:00.651Z,12.8
2023-05-15T22:29:10.029Z,12.7
2023-05-15T22:44:19.872Z,12.6
2023-05-15T22:59:29.896Z,12.5
2023-05-15T23:14:39.133Z,12.4
2023-05-15T23:29:48.895Z,12.4
2023-05-15T23:44:58.687Z,12.5
